sensor_id;sensor_type;location;lat;lon;timestamp;P1;durP1;ratioP1;P2;durP2;ratioP2
10275;SDS011;5183;51.190;6.820;2023-11-19T00:00:30;7.30;;;5.90;;
10275;SDS011;5183;51.190;6.820;2023-11-19T00:02:56;7.43;;;6.20;;
10275;SDS011;5183;51.190;6.820;2023-11-19T00:05:23;6.33;;;5.73;;
10275;SDS011;5183;51.190;6.820;2023-11-19T00:07:51;6.97;;;5.87;;
10275;SDS011;5183;51.190;6.820;2023-11-19T00:10:18;6.27;;;5.67;;
10275;SDS011;5183;51.190;6.820;2023-11-19T00:12:46;6.90;;;5.23;;
10275;SDS011;5183;51.190;6.820;2023-11-19T00:15:14;7.13;;;5.10;;
10275;SDS011;5183;51.190;6.820;2023-11-19T00:17:41;6.83;;;5.20;;
10275;SDS011;5183;51.190;6.820;2023-11-19T00:20:10;6.90;;;4.80;;
10275;SDS011;5183;51.190;6.820;2023-11-19T00:22:37;6.90;;;5.10;;
10275;SDS011;5183;51.190;6.820;2023-11-19T00:25:06;6.43;;;5.13;;
10275;SDS011;5183;51.190;6.820;2023-11-19T00:27:34;6.97;;;5.20;;
10275;SDS011;5183;51.190;6.820;2023-11-19T00:30:00;6.37;;;4.67;;
10275;SDS011;5183;51.190;6.820;2023-11-19T00:32:30;5.77;;;4.77;;
10275;SDS011;5183;51.190;6.820;2023-11-19T00:34:57;5.70;;;5.17;;
10275;SDS011;5183;51.190;6.820;2023-11-19T00:37:24;7.80;;;5.30;;
10275;SDS011;5183;51.190;6.820;2023-11-19T00:39:51;6.13;;;5.03;;
10275;SDS011;5183;51.190;6.820;2023-11-19T00:42:19;5.60;;;5.00;;
10275;SDS011;5183;51.190;6.820;2023-11-19T00:44:46;5.83;;;4.53;;
10275;SDS011;5183;51.190;6.820;2023-11-19T00:47:13;6.10;;;4.33;;
10275;SDS011;5183;51.190;6.820;2023-11-19T00:49:40;5.20;;;4.70;;
10275;SDS011;5183;51.190;6.820;2023-11-19T00:52:07;4.80;;;4.30;;
10275;SDS011;5183;51.190;6.820;2023-11-19T00:54:34;7.07;;;4.47;;
10275;SDS011;5183;51.190;6.820;2023-11-19T00:57:01;3.40;;;3.10;;
10275;SDS011;5183;51.190;6.820;2023-11-19T00:59:30;5.30;;;3.47;;
10275;SDS011;5183;51.190;6.820;2023-11-19T01:01:57;5.87;;;3.30;;
10275;SDS011;5183;51.190;6.820;2023-11-19T01:04:28;3.83;;;2.97;;
10275;SDS011;5183;51.190;6.820;2023-11-19T01:06:55;5.37;;;3.00;;
10275;SDS011;5183;51.190;6.820;2023-11-19T01:09:21;3.57;;;2.43;;
10275;SDS011;5183;51.190;6.820;2023-11-19T01:11:48;3.67;;;2.80;;
10275;SDS011;5183;51.190;6.820;2023-11-19T01:14:15;2.57;;;2.30;;
10275;SDS011;5183;51.190;6.820;2023-11-19T01:16:44;2.47;;;2.20;;
10275;SDS011;5183;51.190;6.820;2023-11-19T01:19:11;3.27;;;1.97;;
10275;SDS011;5183;51.190;6.820;2023-11-19T01:21:37;2.57;;;1.90;;
10275;SDS011;5183;51.190;6.820;2023-11-19T01:24:04;2.77;;;1.70;;
10275;SDS011;5183;51.190;6.820;2023-11-19T01:26:34;2.03;;;1.40;;
10275;SDS011;5183;51.190;6.820;2023-11-19T01:29:01;2.47;;;1.60;;
10275;SDS011;5183;51.190;6.820;2023-11-19T01:31:29;2.37;;;1.43;;
10275;SDS011;5183;51.190;6.820;2023-11-19T01:33:58;2.10;;;1.50;;
10275;SDS011;5183;51.190;6.820;2023-11-19T01:36:25;2.67;;;1.60;;
10275;SDS011;5183;51.190;6.820;2023-11-19T01:38:52;2.43;;;1.40;;
10275;SDS011;5183;51.190;6.820;2023-11-19T01:41:18;1.50;;;1.30;;
10275;SDS011;5183;51.190;6.820;2023-11-19T01:43:45;2.10;;;1.40;;
10275;SDS011;5183;51.190;6.820;2023-11-19T01:46:13;1.63;;;1.40;;
10275;SDS011;5183;51.190;6.820;2023-11-19T01:48:40;2.50;;;1.47;;
10275;SDS011;5183;51.190;6.820;2023-11-19T01:51:11;1.53;;;1.30;;
10275;SDS011;5183;51.190;6.820;2023-11-19T01:53:41;3.23;;;1.70;;
10275;SDS011;5183;51.190;6.820;2023-11-19T01:56:09;2.30;;;1.50;;
10275;SDS011;5183;51.190;6.820;2023-11-19T01:58:40;3.30;;;1.67;;
10275;SDS011;5183;51.190;6.820;2023-11-19T02:01:08;3.80;;;1.63;;
10275;SDS011;5183;51.190;6.820;2023-11-19T02:03:36;2.23;;;1.80;;
10275;SDS011;5183;51.190;6.820;2023-11-19T02:06:03;2.83;;;1.67;;
10275;SDS011;5183;51.190;6.820;2023-11-19T02:08:33;5.40;;;2.20;;
10275;SDS011;5183;51.190;6.820;2023-11-19T02:11:00;3.97;;;1.80;;
10275;SDS011;5183;51.190;6.820;2023-11-19T02:13:27;4.07;;;2.37;;
10275;SDS011;5183;51.190;6.820;2023-11-19T02:15:54;4.00;;;1.87;;
10275;SDS011;5183;51.190;6.820;2023-11-19T02:18:21;4.67;;;2.37;;
10275;SDS011;5183;51.190;6.820;2023-11-19T02:20:49;4.73;;;2.40;;
10275;SDS011;5183;51.190;6.820;2023-11-19T02:23:16;6.93;;;2.67;;
10275;SDS011;5183;51.190;6.820;2023-11-19T02:25:48;4.83;;;2.83;;
10275;SDS011;5183;51.190;6.820;2023-11-19T02:28:27;6.87;;;2.70;;
10275;SDS011;5183;51.190;6.820;2023-11-19T02:30:54;5.97;;;2.90;;
10275;SDS011;5183;51.190;6.820;2023-11-19T02:33:21;6.27;;;2.90;;
10275;SDS011;5183;51.190;6.820;2023-11-19T02:35:49;11.40;;;3.63;;
10275;SDS011;5183;51.190;6.820;2023-11-19T02:38:17;8.83;;;3.30;;
10275;SDS011;5183;51.190;6.820;2023-11-19T02:40:44;10.40;;;3.43;;
10275;SDS011;5183;51.190;6.820;2023-11-19T02:43:10;10.27;;;3.43;;
10275;SDS011;5183;51.190;6.820;2023-11-19T02:45:39;9.13;;;3.40;;
10275;SDS011;5183;51.190;6.820;2023-11-19T02:48:07;9.57;;;3.57;;
10275;SDS011;5183;51.190;6.820;2023-11-19T02:50:34;9.00;;;3.50;;
10275;SDS011;5183;51.190;6.820;2023-11-19T02:53:02;8.60;;;3.17;;
10275;SDS011;5183;51.190;6.820;2023-11-19T02:55:29;9.87;;;3.60;;
10275;SDS011;5183;51.190;6.820;2023-11-19T02:58:01;12.50;;;3.80;;
10275;SDS011;5183;51.190;6.820;2023-11-19T03:00:33;10.07;;;3.50;;
10275;SDS011;5183;51.190;6.820;2023-11-19T03:03:03;11.53;;;4.07;;
10275;SDS011;5183;51.190;6.820;2023-11-19T03:05:42;14.03;;;3.93;;
10275;SDS011;5183;51.190;6.820;2023-11-19T03:08:11;10.77;;;3.97;;
10275;SDS011;5183;51.190;6.820;2023-11-19T03:10:38;13.77;;;4.50;;
10275;SDS011;5183;51.190;6.820;2023-11-19T03:13:05;17.33;;;4.03;;
10275;SDS011;5183;51.190;6.820;2023-11-19T03:15:37;11.57;;;4.63;;
10275;SDS011;5183;51.190;6.820;2023-11-19T03:18:05;11.97;;;4.00;;
10275;SDS011;5183;51.190;6.820;2023-11-19T03:20:31;10.03;;;3.83;;
10275;SDS011;5183;51.190;6.820;2023-11-19T03:22:58;12.47;;;3.93;;
10275;SDS011;5183;51.190;6.820;2023-11-19T03:25:26;10.07;;;3.50;;
10275;SDS011;5183;51.190;6.820;2023-11-19T03:27:58;15.00;;;3.60;;
10275;SDS011;5183;51.190;6.820;2023-11-19T03:30:25;12.63;;;3.50;;
10275;SDS011;5183;51.190;6.820;2023-11-19T03:32:53;12.07;;;3.80;;
10275;SDS011;5183;51.190;6.820;2023-11-19T03:35:21;14.37;;;4.13;;
10275;SDS011;5183;51.190;6.820;2023-11-19T03:37:48;15.37;;;4.23;;
10275;SDS011;5183;51.190;6.820;2023-11-19T03:40:15;12.53;;;4.27;;
10275;SDS011;5183;51.190;6.820;2023-11-19T03:42:44;10.53;;;3.43;;
10275;SDS011;5183;51.190;6.820;2023-11-19T03:45:10;10.67;;;3.80;;
10275;SDS011;5183;51.190;6.820;2023-11-19T03:47:37;11.30;;;3.20;;
10275;SDS011;5183;51.190;6.820;2023-11-19T03:50:05;13.23;;;3.50;;
10275;SDS011;5183;51.190;6.820;2023-11-19T03:52:34;14.67;;;3.40;;
10275;SDS011;5183;51.190;6.820;2023-11-19T03:55:01;16.67;;;3.87;;
10275;SDS011;5183;51.190;6.820;2023-11-19T03:57:29;12.43;;;3.70;;
10275;SDS011;5183;51.190;6.820;2023-11-19T03:59:55;12.90;;;3.87;;
10275;SDS011;5183;51.190;6.820;2023-11-19T04:02:23;13.37;;;3.80;;
10275;SDS011;5183;51.190;6.820;2023-11-19T04:04:52;13.07;;;2.93;;
10275;SDS011;5183;51.190;6.820;2023-11-19T04:07:20;13.40;;;3.57;;
10275;SDS011;5183;51.190;6.820;2023-11-19T04:09:48;17.00;;;4.03;;
10275;SDS011;5183;51.190;6.820;2023-11-19T04:12:15;19.03;;;4.17;;
10275;SDS011;5183;51.190;6.820;2023-11-19T04:14:41;17.30;;;3.67;;
10275;SDS011;5183;51.190;6.820;2023-11-19T04:17:09;15.87;;;3.90;;
10275;SDS011;5183;51.190;6.820;2023-11-19T04:19:36;15.77;;;3.43;;
10275;SDS011;5183;51.190;6.820;2023-11-19T04:22:06;20.60;;;4.77;;
10275;SDS011;5183;51.190;6.820;2023-11-19T04:24:34;16.70;;;4.43;;
10275;SDS011;5183;51.190;6.820;2023-11-19T04:27:02;18.47;;;4.07;;
10275;SDS011;5183;51.190;6.820;2023-11-19T04:29:30;15.03;;;4.03;;
10275;SDS011;5183;51.190;6.820;2023-11-19T04:31:57;17.63;;;4.20;;
10275;SDS011;5183;51.190;6.820;2023-11-19T04:34:24;15.40;;;4.07;;
10275;SDS011;5183;51.190;6.820;2023-11-19T04:36:51;21.27;;;4.60;;
10275;SDS011;5183;51.190;6.820;2023-11-19T04:39:17;13.40;;;4.03;;
10275;SDS011;5183;51.190;6.820;2023-11-19T04:41:48;14.90;;;3.80;;
10275;SDS011;5183;51.190;6.820;2023-11-19T04:44:16;14.43;;;3.93;;
10275;SDS011;5183;51.190;6.820;2023-11-19T04:46:43;17.07;;;3.90;;
10275;SDS011;5183;51.190;6.820;2023-11-19T04:49:11;16.30;;;3.87;;
10275;SDS011;5183;51.190;6.820;2023-11-19T04:51:39;14.87;;;3.97;;
10275;SDS011;5183;51.190;6.820;2023-11-19T04:54:06;19.20;;;4.27;;
10275;SDS011;5183;51.190;6.820;2023-11-19T04:56:34;18.27;;;4.00;;
10275;SDS011;5183;51.190;6.820;2023-11-19T04:59:01;17.47;;;4.60;;
10275;SDS011;5183;51.190;6.820;2023-11-19T05:01:29;20.63;;;4.53;;
10275;SDS011;5183;51.190;6.820;2023-11-19T05:03:56;19.43;;;4.43;;
10275;SDS011;5183;51.190;6.820;2023-11-19T05:06:25;21.33;;;4.97;;
10275;SDS011;5183;51.190;6.820;2023-11-19T05:08:54;17.33;;;4.03;;
10275;SDS011;5183;51.190;6.820;2023-11-19T05:11:21;17.47;;;4.67;;
10275;SDS011;5183;51.190;6.820;2023-11-19T05:13:48;20.13;;;4.20;;
10275;SDS011;5183;51.190;6.820;2023-11-19T05:16:15;23.47;;;4.87;;
10275;SDS011;5183;51.190;6.820;2023-11-19T05:18:44;18.67;;;4.93;;
10275;SDS011;5183;51.190;6.820;2023-11-19T05:21:10;23.27;;;4.93;;
10275;SDS011;5183;51.190;6.820;2023-11-19T05:23:37;19.43;;;4.13;;
10275;SDS011;5183;51.190;6.820;2023-11-19T05:26:04;16.13;;;3.97;;
10275;SDS011;5183;51.190;6.820;2023-11-19T05:28:31;21.23;;;4.97;;
10275;SDS011;5183;51.190;6.820;2023-11-19T05:30:58;22.83;;;4.97;;
10275;SDS011;5183;51.190;6.820;2023-11-19T05:33:25;18.97;;;4.13;;
10275;SDS011;5183;51.190;6.820;2023-11-19T05:35:53;18.87;;;4.47;;
10275;SDS011;5183;51.190;6.820;2023-11-19T05:38:22;16.03;;;4.27;;
10275;SDS011;5183;51.190;6.820;2023-11-19T05:40:49;19.47;;;4.27;;
10275;SDS011;5183;51.190;6.820;2023-11-19T05:43:15;17.87;;;4.33;;
10275;SDS011;5183;51.190;6.820;2023-11-19T05:45:42;17.70;;;4.50;;
10275;SDS011;5183;51.190;6.820;2023-11-19T05:48:09;18.20;;;4.67;;
10275;SDS011;5183;51.190;6.820;2023-11-19T05:50:36;16.20;;;3.57;;
10275;SDS011;5183;51.190;6.820;2023-11-19T05:53:04;18.23;;;4.33;;
10275;SDS011;5183;51.190;6.820;2023-11-19T05:55:35;17.37;;;4.53;;
10275;SDS011;5183;51.190;6.820;2023-11-19T05:58:02;17.07;;;4.20;;
10275;SDS011;5183;51.190;6.820;2023-11-19T06:00:31;18.63;;;4.27;;
10275;SDS011;5183;51.190;6.820;2023-11-19T06:02:59;16.23;;;4.27;;
10275;SDS011;5183;51.190;6.820;2023-11-19T06:05:26;18.97;;;4.43;;
10275;SDS011;5183;51.190;6.820;2023-11-19T06:07:53;18.40;;;4.43;;
10275;SDS011;5183;51.190;6.820;2023-11-19T06:10:21;13.13;;;4.53;;
10275;SDS011;5183;51.190;6.820;2023-11-19T06:12:54;16.77;;;3.97;;
10275;SDS011;5183;51.190;6.820;2023-11-19T06:15:22;21.47;;;3.87;;
10275;SDS011;5183;51.190;6.820;2023-11-19T06:17:49;16.60;;;4.13;;
10275;SDS011;5183;51.190;6.820;2023-11-19T06:20:16;19.07;;;5.03;;
10275;SDS011;5183;51.190;6.820;2023-11-19T06:22:44;17.37;;;4.87;;
10275;SDS011;5183;51.190;6.820;2023-11-19T06:25:11;20.13;;;4.57;;
10275;SDS011;5183;51.190;6.820;2023-11-19T06:27:41;20.63;;;4.50;;
10275;SDS011;5183;51.190;6.820;2023-11-19T06:30:08;22.20;;;4.93;;
10275;SDS011;5183;51.190;6.820;2023-11-19T06:32:36;18.07;;;4.20;;
10275;SDS011;5183;51.190;6.820;2023-11-19T06:35:03;22.60;;;4.43;;
10275;SDS011;5183;51.190;6.820;2023-11-19T06:37:31;17.77;;;4.40;;
10275;SDS011;5183;51.190;6.820;2023-11-19T06:39:58;21.13;;;4.67;;
10275;SDS011;5183;51.190;6.820;2023-11-19T06:42:25;23.57;;;4.87;;
10275;SDS011;5183;51.190;6.820;2023-11-19T06:44:53;23.60;;;5.53;;
10275;SDS011;5183;51.190;6.820;2023-11-19T06:47:22;19.70;;;5.17;;
10275;SDS011;5183;51.190;6.820;2023-11-19T06:49:51;19.93;;;4.57;;
10275;SDS011;5183;51.190;6.820;2023-11-19T06:52:18;19.67;;;4.97;;
10275;SDS011;5183;51.190;6.820;2023-11-19T06:54:44;18.93;;;4.83;;
10275;SDS011;5183;51.190;6.820;2023-11-19T06:57:11;18.77;;;4.60;;
10275;SDS011;5183;51.190;6.820;2023-11-19T06:59:38;25.40;;;4.90;;
10275;SDS011;5183;51.190;6.820;2023-11-19T07:02:07;21.40;;;5.30;;
10275;SDS011;5183;51.190;6.820;2023-11-19T07:04:34;22.73;;;5.43;;
10275;SDS011;5183;51.190;6.820;2023-11-19T07:07:00;20.23;;;4.97;;
10275;SDS011;5183;51.190;6.820;2023-11-19T07:09:27;19.20;;;4.53;;
10275;SDS011;5183;51.190;6.820;2023-11-19T07:11:54;18.80;;;4.60;;
10275;SDS011;5183;51.190;6.820;2023-11-19T07:14:21;22.27;;;4.87;;
10275;SDS011;5183;51.190;6.820;2023-11-19T07:16:48;21.47;;;5.20;;
10275;SDS011;5183;51.190;6.820;2023-11-19T07:19:17;27.00;;;5.97;;
10275;SDS011;5183;51.190;6.820;2023-11-19T07:21:44;21.57;;;5.63;;
10275;SDS011;5183;51.190;6.820;2023-11-19T07:24:11;23.67;;;5.50;;
10275;SDS011;5183;51.190;6.820;2023-11-19T07:26:41;25.77;;;4.40;;
10275;SDS011;5183;51.190;6.820;2023-11-19T07:29:09;18.47;;;4.67;;
10275;SDS011;5183;51.190;6.820;2023-11-19T07:31:36;21.03;;;5.53;;
10275;SDS011;5183;51.190;6.820;2023-11-19T07:34:03;25.70;;;5.40;;
10275;SDS011;5183;51.190;6.820;2023-11-19T07:36:31;24.97;;;6.20;;
10275;SDS011;5183;51.190;6.820;2023-11-19T07:38:58;19.07;;;5.20;;
10275;SDS011;5183;51.190;6.820;2023-11-19T07:41:25;24.17;;;5.40;;
10275;SDS011;5183;51.190;6.820;2023-11-19T07:43:52;27.33;;;5.40;;
10275;SDS011;5183;51.190;6.820;2023-11-19T07:46:19;20.77;;;5.33;;
10275;SDS011;5183;51.190;6.820;2023-11-19T07:48:46;22.50;;;5.43;;
10275;SDS011;5183;51.190;6.820;2023-11-19T07:51:13;19.23;;;4.60;;
10275;SDS011;5183;51.190;6.820;2023-11-19T07:53:42;22.73;;;5.77;;
10275;SDS011;5183;51.190;6.820;2023-11-19T07:56:09;22.03;;;4.87;;
10275;SDS011;5183;51.190;6.820;2023-11-19T07:58:36;26.73;;;5.87;;
10275;SDS011;5183;51.190;6.820;2023-11-19T08:01:04;21.40;;;6.03;;
10275;SDS011;5183;51.190;6.820;2023-11-19T08:03:31;27.07;;;5.80;;
10275;SDS011;5183;51.190;6.820;2023-11-19T08:05:59;23.53;;;5.07;;
10275;SDS011;5183;51.190;6.820;2023-11-19T08:08:26;23.03;;;5.13;;
10275;SDS011;5183;51.190;6.820;2023-11-19T08:10:56;20.03;;;4.60;;
10275;SDS011;5183;51.190;6.820;2023-11-19T08:13:23;22.17;;;4.43;;
10275;SDS011;5183;51.190;6.820;2023-11-19T08:15:50;19.87;;;5.13;;
10275;SDS011;5183;51.190;6.820;2023-11-19T08:18:16;22.77;;;5.68;;
10275;SDS011;5183;51.190;6.820;2023-11-19T08:20:44;21.60;;;5.73;;
10275;SDS011;5183;51.190;6.820;2023-11-19T08:23:14;22.53;;;5.37;;
10275;SDS011;5183;51.190;6.820;2023-11-19T08:25:40;24.33;;;5.27;;
10275;SDS011;5183;51.190;6.820;2023-11-19T08:28:09;22.47;;;5.17;;
10275;SDS011;5183;51.190;6.820;2023-11-19T08:30:35;23.70;;;4.97;;
10275;SDS011;5183;51.190;6.820;2023-11-19T08:33:02;24.47;;;5.73;;
10275;SDS011;5183;51.190;6.820;2023-11-19T08:35:31;24.67;;;5.47;;
10275;SDS011;5183;51.190;6.820;2023-11-19T08:37:57;20.03;;;5.00;;
10275;SDS011;5183;51.190;6.820;2023-11-19T08:40:25;22.90;;;4.63;;
10275;SDS011;5183;51.190;6.820;2023-11-19T08:42:52;23.20;;;5.97;;
10275;SDS011;5183;51.190;6.820;2023-11-19T08:45:20;23.60;;;5.40;;
10275;SDS011;5183;51.190;6.820;2023-11-19T08:47:47;22.43;;;6.07;;
10275;SDS011;5183;51.190;6.820;2023-11-19T08:50:14;19.60;;;5.63;;
10275;SDS011;5183;51.190;6.820;2023-11-19T08:52:41;20.80;;;5.13;;
10275;SDS011;5183;51.190;6.820;2023-11-19T08:55:08;27.50;;;5.57;;
10275;SDS011;5183;51.190;6.820;2023-11-19T08:57:35;22.90;;;5.10;;
10275;SDS011;5183;51.190;6.820;2023-11-19T09:00:02;19.10;;;5.07;;
10275;SDS011;5183;51.190;6.820;2023-11-19T09:02:34;23.50;;;5.13;;
10275;SDS011;5183;51.190;6.820;2023-11-19T09:05:02;22.03;;;5.03;;
10275;SDS011;5183;51.190;6.820;2023-11-19T09:07:29;24.77;;;5.40;;
10275;SDS011;5183;51.190;6.820;2023-11-19T09:09:55;22.47;;;4.60;;
10275;SDS011;5183;51.190;6.820;2023-11-19T09:12:22;24.63;;;4.93;;
10275;SDS011;5183;51.190;6.820;2023-11-19T09:14:49;24.23;;;5.37;;
10275;SDS011;5183;51.190;6.820;2023-11-19T09:17:16;21.13;;;5.57;;
10275;SDS011;5183;51.190;6.820;2023-11-19T09:19:45;26.57;;;6.10;;
10275;SDS011;5183;51.190;6.820;2023-11-19T09:22:11;24.23;;;5.33;;
10275;SDS011;5183;51.190;6.820;2023-11-19T09:24:38;23.93;;;5.13;;
10275;SDS011;5183;51.190;6.820;2023-11-19T09:27:05;27.27;;;5.73;;
10275;SDS011;5183;51.190;6.820;2023-11-19T09:29:32;22.47;;;5.30;;
10275;SDS011;5183;51.190;6.820;2023-11-19T09:31:59;20.60;;;5.40;;
10275;SDS011;5183;51.190;6.820;2023-11-19T09:34:26;21.33;;;5.10;;
10275;SDS011;5183;51.190;6.820;2023-11-19T09:36:54;23.73;;;5.47;;
10275;SDS011;5183;51.190;6.820;2023-11-19T09:39:21;24.47;;;6.13;;
10275;SDS011;5183;51.190;6.820;2023-11-19T09:41:48;21.87;;;4.77;;
10275;SDS011;5183;51.190;6.820;2023-11-19T09:44:15;22.33;;;5.10;;
10275;SDS011;5183;51.190;6.820;2023-11-19T09:46:43;21.40;;;5.07;;
10275;SDS011;5183;51.190;6.820;2023-11-19T09:49:11;25.97;;;5.80;;
10275;SDS011;5183;51.190;6.820;2023-11-19T09:51:39;15.67;;;4.40;;
10275;SDS011;5183;51.190;6.820;2023-11-19T09:54:08;27.43;;;5.90;;
10275;SDS011;5183;51.190;6.820;2023-11-19T09:56:35;19.20;;;4.90;;
10275;SDS011;5183;51.190;6.820;2023-11-19T09:59:04;24.73;;;5.47;;
10275;SDS011;5183;51.190;6.820;2023-11-19T10:01:31;24.50;;;4.50;;
10275;SDS011;5183;51.190;6.820;2023-11-19T10:04:00;22.30;;;4.97;;
10275;SDS011;5183;51.190;6.820;2023-11-19T10:06:28;18.97;;;5.20;;
10275;SDS011;5183;51.190;6.820;2023-11-19T10:08:55;21.00;;;5.10;;
10275;SDS011;5183;51.190;6.820;2023-11-19T10:11:23;18.30;;;5.13;;
10275;SDS011;5183;51.190;6.820;2023-11-19T10:13:50;21.37;;;5.00;;
10275;SDS011;5183;51.190;6.820;2023-11-19T10:16:18;30.83;;;5.50;;
10275;SDS011;5183;51.190;6.820;2023-11-19T10:18:45;23.17;;;5.13;;
10275;SDS011;5183;51.190;6.820;2023-11-19T10:21:13;25.93;;;5.13;;
10275;SDS011;5183;51.190;6.820;2023-11-19T10:23:48;19.53;;;5.30;;
10275;SDS011;5183;51.190;6.820;2023-11-19T10:26:17;20.83;;;5.03;;
10275;SDS011;5183;51.190;6.820;2023-11-19T10:28:45;23.10;;;5.10;;
10275;SDS011;5183;51.190;6.820;2023-11-19T10:31:13;22.00;;;5.17;;
10275;SDS011;5183;51.190;6.820;2023-11-19T10:33:40;17.70;;;5.13;;
10275;SDS011;5183;51.190;6.820;2023-11-19T10:36:07;25.23;;;5.47;;
10275;SDS011;5183;51.190;6.820;2023-11-19T10:38:34;20.03;;;4.73;;
10275;SDS011;5183;51.190;6.820;2023-11-19T10:41:01;20.67;;;4.97;;
10275;SDS011;5183;51.190;6.820;2023-11-19T10:43:29;24.00;;;5.67;;
10275;SDS011;5183;51.190;6.820;2023-11-19T10:46:08;24.27;;;5.30;;
10275;SDS011;5183;51.190;6.820;2023-11-19T10:48:36;19.50;;;4.70;;
10275;SDS011;5183;51.190;6.820;2023-11-19T10:51:04;20.43;;;4.77;;
10275;SDS011;5183;51.190;6.820;2023-11-19T10:53:32;19.47;;;4.60;;
10275;SDS011;5183;51.190;6.820;2023-11-19T10:56:01;25.33;;;4.73;;
10275;SDS011;5183;51.190;6.820;2023-11-19T10:58:31;19.53;;;5.80;;
10275;SDS011;5183;51.190;6.820;2023-11-19T11:01:01;19.63;;;5.70;;
10275;SDS011;5183;51.190;6.820;2023-11-19T11:03:31;20.33;;;4.37;;
10275;SDS011;5183;51.190;6.820;2023-11-19T11:06:05;20.33;;;4.63;;
10275;SDS011;5183;51.190;6.820;2023-11-19T11:08:32;18.57;;;4.57;;
10275;SDS011;5183;51.190;6.820;2023-11-19T11:11:03;18.60;;;4.87;;
10275;SDS011;5183;51.190;6.820;2023-11-19T11:13:32;18.70;;;5.20;;
10275;SDS011;5183;51.190;6.820;2023-11-19T11:16:00;16.00;;;4.10;;
10275;SDS011;5183;51.190;6.820;2023-11-19T11:18:30;20.00;;;4.67;;
10275;SDS011;5183;51.190;6.820;2023-11-19T11:21:04;16.57;;;4.23;;
10275;SDS011;5183;51.190;6.820;2023-11-19T11:23:46;20.40;;;4.50;;
10275;SDS011;5183;51.190;6.820;2023-11-19T11:29:26;16.50;;;4.50;;
10275;SDS011;5183;51.190;6.820;2023-11-19T11:32:01;22.07;;;4.43;;
10275;SDS011;5183;51.190;6.820;2023-11-19T11:37:44;21.27;;;4.20;;
10275;SDS011;5183;51.190;6.820;2023-11-19T11:40:13;19.13;;;4.47;;
10275;SDS011;5183;51.190;6.820;2023-11-19T11:42:41;18.20;;;4.47;;
10275;SDS011;5183;51.190;6.820;2023-11-19T11:45:08;15.57;;;4.27;;
10275;SDS011;5183;51.190;6.820;2023-11-19T11:50:47;17.37;;;4.20;;
10275;SDS011;5183;51.190;6.820;2023-11-19T11:53:25;15.37;;;3.73;;
10275;SDS011;5183;51.190;6.820;2023-11-19T11:55:53;18.70;;;4.37;;
10275;SDS011;5183;51.190;6.820;2023-11-19T11:58:31;14.10;;;3.83;;
10275;SDS011;5183;51.190;6.820;2023-11-19T12:01:01;16.73;;;4.43;;
10275;SDS011;5183;51.190;6.820;2023-11-19T12:03:31;17.23;;;4.60;;
10275;SDS011;5183;51.190;6.820;2023-11-19T12:05:59;18.70;;;4.27;;
10275;SDS011;5183;51.190;6.820;2023-11-19T12:08:28;16.50;;;4.25;;
10275;SDS011;5183;51.190;6.820;2023-11-19T12:10:56;17.75;;;4.38;;
10275;SDS011;5183;51.190;6.820;2023-11-19T12:13:24;16.13;;;4.72;;
10275;SDS011;5183;51.190;6.820;2023-11-19T12:16:09;19.30;;;4.93;;
10275;SDS011;5183;51.190;6.820;2023-11-19T12:18:38;16.00;;;4.15;;
10275;SDS011;5183;51.190;6.820;2023-11-19T12:21:06;16.27;;;3.70;;
10275;SDS011;5183;51.190;6.820;2023-11-19T12:23:37;18.17;;;4.40;;
10275;SDS011;5183;51.190;6.820;2023-11-19T12:26:31;16.87;;;4.47;;
10275;SDS011;5183;51.190;6.820;2023-11-19T12:29:03;17.23;;;4.30;;
10275;SDS011;5183;51.190;6.820;2023-11-19T12:31:31;17.10;;;4.30;;
10275;SDS011;5183;51.190;6.820;2023-11-19T12:34:00;14.17;;;4.00;;
10275;SDS011;5183;51.190;6.820;2023-11-19T12:36:31;18.77;;;4.43;;
10275;SDS011;5183;51.190;6.820;2023-11-19T12:39:00;17.02;;;4.70;;
10275;SDS011;5183;51.190;6.820;2023-11-19T12:41:27;20.02;;;5.10;;
10275;SDS011;5183;51.190;6.820;2023-11-19T12:43:54;15.53;;;3.83;;
10275;SDS011;5183;51.190;6.820;2023-11-19T12:46:34;15.57;;;4.67;;
10275;SDS011;5183;51.190;6.820;2023-11-19T12:49:01;15.40;;;4.10;;
10275;SDS011;5183;51.190;6.820;2023-11-19T12:51:30;25.27;;;4.20;;
10275;SDS011;5183;51.190;6.820;2023-11-19T12:53:57;13.17;;;3.57;;
10275;SDS011;5183;51.190;6.820;2023-11-19T12:56:25;17.53;;;3.83;;
10275;SDS011;5183;51.190;6.820;2023-11-19T12:58:52;19.13;;;4.30;;
10275;SDS011;5183;51.190;6.820;2023-11-19T13:01:20;17.03;;;3.97;;
10275;SDS011;5183;51.190;6.820;2023-11-19T13:03:47;17.77;;;4.33;;
10275;SDS011;5183;51.190;6.820;2023-11-19T13:06:16;41.80;;;22.73;;
10275;SDS011;5183;51.190;6.820;2023-11-19T13:08:46;20.00;;;4.20;;
10275;SDS011;5183;51.190;6.820;2023-11-19T13:11:31;18.00;;;4.47;;
10275;SDS011;5183;51.190;6.820;2023-11-19T13:13:58;16.23;;;4.33;;
10275;SDS011;5183;51.190;6.820;2023-11-19T13:16:28;14.37;;;3.90;;
10275;SDS011;5183;51.190;6.820;2023-11-19T13:18:57;18.43;;;4.27;;
10275;SDS011;5183;51.190;6.820;2023-11-19T13:21:25;13.33;;;3.70;;
10275;SDS011;5183;51.190;6.820;2023-11-19T13:23:52;14.90;;;3.87;;
10275;SDS011;5183;51.190;6.820;2023-11-19T13:26:19;16.57;;;4.37;;
10275;SDS011;5183;51.190;6.820;2023-11-19T13:28:47;19.00;;;4.27;;
10275;SDS011;5183;51.190;6.820;2023-11-19T13:31:15;18.30;;;3.73;;
10275;SDS011;5183;51.190;6.820;2023-11-19T13:33:42;15.47;;;3.50;;
10275;SDS011;5183;51.190;6.820;2023-11-19T13:36:09;20.10;;;4.87;;
10275;SDS011;5183;51.190;6.820;2023-11-19T13:38:36;18.43;;;4.33;;
10275;SDS011;5183;51.190;6.820;2023-11-19T13:41:04;15.30;;;3.80;;
10275;SDS011;5183;51.190;6.820;2023-11-19T13:43:31;15.90;;;3.50;;
10275;SDS011;5183;51.190;6.820;2023-11-19T13:46:00;18.17;;;4.30;;
10275;SDS011;5183;51.190;6.820;2023-11-19T13:48:26;14.47;;;4.13;;
10275;SDS011;5183;51.190;6.820;2023-11-19T13:50:54;17.43;;;3.90;;
10275;SDS011;5183;51.190;6.820;2023-11-19T13:53:21;19.03;;;3.70;;
10275;SDS011;5183;51.190;6.820;2023-11-19T13:55:48;13.43;;;4.00;;
10275;SDS011;5183;51.190;6.820;2023-11-19T13:58:15;16.60;;;4.40;;
10275;SDS011;5183;51.190;6.820;2023-11-19T14:00:42;17.27;;;4.30;;
10275;SDS011;5183;51.190;6.820;2023-11-19T14:03:10;17.53;;;4.10;;
10275;SDS011;5183;51.190;6.820;2023-11-19T14:05:37;23.80;;;4.13;;
10275;SDS011;5183;51.190;6.820;2023-11-19T14:08:04;16.00;;;4.50;;
10275;SDS011;5183;51.190;6.820;2023-11-19T14:10:36;45.83;;;20.40;;
10275;SDS011;5183;51.190;6.820;2023-11-19T14:13:04;17.97;;;4.43;;
10275;SDS011;5183;51.190;6.820;2023-11-19T14:15:31;18.40;;;4.73;;
10275;SDS011;5183;51.190;6.820;2023-11-19T14:17:58;19.47;;;4.53;;
10275;SDS011;5183;51.190;6.820;2023-11-19T14:20:27;19.07;;;4.17;;
10275;SDS011;5183;51.190;6.820;2023-11-19T14:22:53;18.13;;;4.70;;
10275;SDS011;5183;51.190;6.820;2023-11-19T14:25:20;18.43;;;4.20;;
10275;SDS011;5183;51.190;6.820;2023-11-19T14:27:48;17.93;;;4.40;;
10275;SDS011;5183;51.190;6.820;2023-11-19T14:30:15;21.90;;;4.70;;
10275;SDS011;5183;51.190;6.820;2023-11-19T14:32:43;20.50;;;4.80;;
10275;SDS011;5183;51.190;6.820;2023-11-19T14:35:11;22.53;;;5.03;;
10275;SDS011;5183;51.190;6.820;2023-11-19T14:37:39;16.73;;;4.63;;
10275;SDS011;5183;51.190;6.820;2023-11-19T14:40:06;18.00;;;4.40;;
10275;SDS011;5183;51.190;6.820;2023-11-19T14:42:36;23.40;;;5.10;;
10275;SDS011;5183;51.190;6.820;2023-11-19T14:45:04;20.93;;;5.00;;
10275;SDS011;5183;51.190;6.820;2023-11-19T14:47:32;16.20;;;4.57;;
10275;SDS011;5183;51.190;6.820;2023-11-19T14:49:58;21.37;;;5.17;;
10275;SDS011;5183;51.190;6.820;2023-11-19T14:52:25;21.47;;;5.20;;
10275;SDS011;5183;51.190;6.820;2023-11-19T14:54:54;18.37;;;5.10;;
10275;SDS011;5183;51.190;6.820;2023-11-19T14:57:21;24.00;;;5.17;;
10275;SDS011;5183;51.190;6.820;2023-11-19T14:59:48;22.63;;;5.13;;
10275;SDS011;5183;51.190;6.820;2023-11-19T15:02:15;17.27;;;4.30;;
10275;SDS011;5183;51.190;6.820;2023-11-19T15:04:42;20.57;;;5.03;;